Ebeye, MH (96970)

11:32 PM MHT on February 13, 2016 (GMT +1200)
Wake Island Army Air Field | | Change Station
CLOSE
Current Station
Airport
Location: Wake Island, Wake Island Army,
Elevation: 13 ft
Nearby Weather Stations

Elev 13 ft 19.28 °N, 166.64 °E | Updated 34 minutes ago

Mostly Cloudy
Mostly Cloudy
72 °F
Feels Like 72 °F
N
24
Wind Variable Wind from NNE

Today
High -- | Low -- °F
--% Chance of Precip.
Yesterday
High -- | Low -- °F
Precip. -- in
Pressure 30.08 in
Visibility 6.2 miles
Clouds Mostly Cloudy 6000 ft
Dew Point 54 °F
Humidity 51%
Rainfall 0.00 in
Snow Depth Not available.
6:53 AM 6:46 PM
Waxing Crescent, 30% visible
METAR PWAK 131058Z AUTO 03021KT 9999 BKN060 23/12 A3006 RMK AO2 PK WND 03033/14 SLP186 T02250120 $
Pressure 30.08 in
Visibility 6.2 miles
Clouds Mostly Cloudy 6000 ft
Dew Point 54 °F
Humidity 51%
Rainfall 0.00 in
Snow Depth Not available.
6:53 AM 6:46 PM
Waxing Crescent, 30% visible
METAR PWAK 131058Z AUTO 03021KT 9999 BKN060 23/12 A3006 RMK AO2 PK WND 03033/14 SLP186 T02250120 $

10-Day Weather Forecast

No radar image for this location.
×

Almanac

Astronomy

Feb. 13, 2016 Rise Set
Actual Time
Civil Twilight
Nautical Twilight
Astronomical Twilight
Moon
Length of Visible Light
Length of Day
Tomorrow will be .
, % of the Moon is Illuminated

Today's Extremes

State Highs State Lows

Community

WunderPhotos

Upload Photos

1,892,541 photos uploaded!

WunderBlog® & News

Nearby

Air Quality

  Air Quality AQ Index Pollutant
Not available.

Snow Depth

Station Depth Elevation

Earthquake Activity

City Distance Mag. Time & Date
Minimum magnitude displayed is 2.5.

Coastal Water Temperatures

Place Temperature

Stations

Nearby Weather Stations

Station Location Temp. Windchill Dew Point Humidity Wind Precip. Elev Updated Type
                   

Watches & Warnings

There are currently no watches in effect.